Mukwonago, WI (53149)

10:32 AM CDT on May 24, 2015 (GMT -0500)
Meadow Park Estates | | Change Station
CLOSE
Current Station
Personal Weather Station
Location: Mukwonago, WI
Elevation: 807 ft
Nearby Weather Stations

Elev 807 ft 42.86 °N, 88.33 °W | Updated 41 seconds ago

Mostly Cloudy
Mostly Cloudy
64.8 °F
Feels Like 64.8 °F
N
0.0
Wind Variable Wind from SW
Gusts 0.0 mph

Today
High -- | Low -- °F
--% Chance of Precip.
Yesterday
High -- | Low -- °F
Precip. -- in
5:22 AM 8:18 PM
Waxing Crescent, 40% visible
Pressure 30.17 in
Visibility 10.0 miles
Clouds Scattered Clouds 8500 ft
Scattered Clouds 10000 ft
Dew Point 56 °F
Humidity 72%
Rainfall 0.00 in
Snow Depth Not available.
UV 6 out of 12
Pollen 5.60 out of 12
Air Quality Not available.
Flu Activity Sporadic
METAR KBUU 241515Z AUTO 15003KT 10SM -DZ SCT085 SCT100 18/11 A3017 RMK AO2 T01780109

More Conditions Fewer Conditions

Pressure 30.17 in
Visibility 10.0 miles
Clouds Scattered Clouds 8500 ft
Scattered Clouds 10000 ft
Dew Point 56 °F
Humidity 72%
Rainfall 0.00 in
Snow Depth Not available.
UV 6 out of 12
Pollen 5.60 out of 12
Air Quality Not available.
Flu Activity Sporadic
METAR KBUU 241515Z AUTO 15003KT 10SM -DZ SCT085 SCT100 18/11 A3017 RMK AO2 T01780109

More Conditions Fewer Conditions

10-Day Weather Forecast

Almanac

Astronomy

May. 24, 2015 Rise Set
Actual Time
Civil Twilight
Nautical Twilight
Astronomical Twilight
Moon
Length of Visible Light
Length of Day
Tomorrow will be .
, % of the Moon is Illuminated

Today's Extremes

State Highs State Lows

Community

WunderPhotos

Upload Photos

1,823,770 photos uploaded!

WunderBlogs® & News

Nearby

Air Quality

  Air Quality AQ Index Pollutant
Not available.

Snow Depth

Station Depth Elevation

Earthquake Activity

City Distance Mag. Time & Date
Minimum magnitude displayed is 2.5.

Coastal Water Temperatures

Place Temperature

Stations

Nearby Weather Stations

Station Location Temp. Windchill Dew Point Humidity Wind Precip. Elev Updated Type